sensor_id;sensor_type;location;lat;lon;timestamp;P1;durP1;ratioP1;P2;durP2;ratioP2
5987;SDS011;3021;51.000;6.980;2023-12-07T00:01:05;59.67;;;32.53;;
5987;SDS011;3021;51.000;6.980;2023-12-07T00:03:30;51.78;;;31.58;;
5987;SDS011;3021;51.000;6.980;2023-12-07T00:05:56;56.92;;;31.35;;
5987;SDS011;3021;51.000;6.980;2023-12-07T00:08:21;56.83;;;33.15;;
5987;SDS011;3021;51.000;6.980;2023-12-07T00:10:46;54.47;;;29.92;;
5987;SDS011;3021;51.000;6.980;2023-12-07T00:13:12;52.45;;;29.23;;
5987;SDS011;3021;51.000;6.980;2023-12-07T00:15:37;50.97;;;28.10;;
5987;SDS011;3021;51.000;6.980;2023-12-07T00:18:02;49.78;;;28.67;;
5987;SDS011;3021;51.000;6.980;2023-12-07T00:20:29;48.92;;;28.98;;
5987;SDS011;3021;51.000;6.980;2023-12-07T00:22:54;47.10;;;28.08;;
5987;SDS011;3021;51.000;6.980;2023-12-07T00:25:20;46.17;;;27.77;;
5987;SDS011;3021;51.000;6.980;2023-12-07T00:27:46;46.60;;;26.88;;
5987;SDS011;3021;51.000;6.980;2023-12-07T00:30:12;48.15;;;28.77;;
5987;SDS011;3021;51.000;6.980;2023-12-07T00:32:37;51.88;;;27.85;;
5987;SDS011;3021;51.000;6.980;2023-12-07T00:35:03;46.17;;;26.27;;
5987;SDS011;3021;51.000;6.980;2023-12-07T00:37:29;42.92;;;26.92;;
5987;SDS011;3021;51.000;6.980;2023-12-07T00:39:54;46.53;;;26.25;;
5987;SDS011;3021;51.000;6.980;2023-12-07T00:42:19;52.42;;;30.23;;
5987;SDS011;3021;51.000;6.980;2023-12-07T00:44:44;46.97;;;27.75;;
5987;SDS011;3021;51.000;6.980;2023-12-07T00:47:10;42.70;;;26.70;;
5987;SDS011;3021;51.000;6.980;2023-12-07T00:49:38;50.47;;;27.70;;
5987;SDS011;3021;51.000;6.980;2023-12-07T00:52:07;43.78;;;27.65;;
5987;SDS011;3021;51.000;6.980;2023-12-07T00:54:33;50.10;;;28.05;;
5987;SDS011;3021;51.000;6.980;2023-12-07T00:56:58;50.03;;;28.75;;
5987;SDS011;3021;51.000;6.980;2023-12-07T00:59:24;45.83;;;26.60;;
5987;SDS011;3021;51.000;6.980;2023-12-07T01:01:49;44.70;;;26.48;;
5987;SDS011;3021;51.000;6.980;2023-12-07T01:04:15;50.30;;;27.10;;
5987;SDS011;3021;51.000;6.980;2023-12-07T01:06:41;49.10;;;26.40;;
5987;SDS011;3021;51.000;6.980;2023-12-07T01:09:07;45.00;;;26.92;;
5987;SDS011;3021;51.000;6.980;2023-12-07T01:11:37;47.83;;;27.58;;
5987;SDS011;3021;51.000;6.980;2023-12-07T01:14:02;50.67;;;28.52;;
5987;SDS011;3021;51.000;6.980;2023-12-07T01:16:27;46.28;;;28.35;;
5987;SDS011;3021;51.000;6.980;2023-12-07T01:18:52;43.85;;;27.33;;
5987;SDS011;3021;51.000;6.980;2023-12-07T01:21:18;48.85;;;28.65;;
5987;SDS011;3021;51.000;6.980;2023-12-07T01:23:43;48.70;;;27.20;;
5987;SDS011;3021;51.000;6.980;2023-12-07T01:26:08;51.05;;;27.50;;
5987;SDS011;3021;51.000;6.980;2023-12-07T01:28:34;48.30;;;28.38;;
5987;SDS011;3021;51.000;6.980;2023-12-07T01:30:59;51.03;;;27.98;;
5987;SDS011;3021;51.000;6.980;2023-12-07T01:33:24;43.83;;;26.85;;
5987;SDS011;3021;51.000;6.980;2023-12-07T01:35:50;48.83;;;26.67;;
5987;SDS011;3021;51.000;6.980;2023-12-07T01:38:15;53.13;;;29.65;;
5987;SDS011;3021;51.000;6.980;2023-12-07T01:40:40;55.08;;;29.80;;
5987;SDS011;3021;51.000;6.980;2023-12-07T01:43:06;52.40;;;28.80;;
5987;SDS011;3021;51.000;6.980;2023-12-07T01:45:31;49.92;;;29.35;;
5987;SDS011;3021;51.000;6.980;2023-12-07T01:47:56;47.85;;;29.30;;
5987;SDS011;3021;51.000;6.980;2023-12-07T01:50:23;47.40;;;27.27;;
5987;SDS011;3021;51.000;6.980;2023-12-07T01:52:49;45.28;;;27.25;;
5987;SDS011;3021;51.000;6.980;2023-12-07T01:55:19;46.28;;;27.92;;
5987;SDS011;3021;51.000;6.980;2023-12-07T01:57:46;55.10;;;30.77;;
5987;SDS011;3021;51.000;6.980;2023-12-07T02:00:12;51.80;;;30.88;;
5987;SDS011;3021;51.000;6.980;2023-12-07T02:02:39;51.72;;;28.95;;
5987;SDS011;3021;51.000;6.980;2023-12-07T02:05:04;50.33;;;28.92;;
5987;SDS011;3021;51.000;6.980;2023-12-07T02:07:31;55.75;;;30.67;;
5987;SDS011;3021;51.000;6.980;2023-12-07T02:09:57;59.47;;;29.85;;
5987;SDS011;3021;51.000;6.980;2023-12-07T02:12:23;55.45;;;30.52;;
5987;SDS011;3021;51.000;6.980;2023-12-07T02:14:49;51.20;;;28.30;;
5987;SDS011;3021;51.000;6.980;2023-12-07T02:17:30;50.92;;;28.75;;
5987;SDS011;3021;51.000;6.980;2023-12-07T02:20:01;54.45;;;30.25;;
5987;SDS011;3021;51.000;6.980;2023-12-07T02:25:35;54.30;;;29.00;;
5987;SDS011;3021;51.000;6.980;2023-12-07T02:28:05;56.97;;;31.10;;
5987;SDS011;3021;51.000;6.980;2023-12-07T02:30:31;51.53;;;29.10;;
5987;SDS011;3021;51.000;6.980;2023-12-07T02:32:56;57.85;;;31.60;;
5987;SDS011;3021;51.000;6.980;2023-12-07T02:35:22;55.35;;;30.23;;
5987;SDS011;3021;51.000;6.980;2023-12-07T02:37:48;54.80;;;30.17;;
5987;SDS011;3021;51.000;6.980;2023-12-07T02:40:17;57.35;;;30.83;;
5987;SDS011;3021;51.000;6.980;2023-12-07T02:42:50;55.25;;;29.75;;
5987;SDS011;3021;51.000;6.980;2023-12-07T02:45:17;58.40;;;31.15;;
5987;SDS011;3021;51.000;6.980;2023-12-07T02:47:43;53.38;;;29.15;;
5987;SDS011;3021;51.000;6.980;2023-12-07T02:50:10;51.55;;;29.00;;
5987;SDS011;3021;51.000;6.980;2023-12-07T02:52:36;52.40;;;29.80;;
5987;SDS011;3021;51.000;6.980;2023-12-07T02:55:01;54.75;;;29.42;;
5987;SDS011;3021;51.000;6.980;2023-12-07T02:57:27;46.55;;;26.80;;
5987;SDS011;3021;51.000;6.980;2023-12-07T02:59:54;50.53;;;27.67;;
5987;SDS011;3021;51.000;6.980;2023-12-07T03:02:20;53.00;;;29.17;;
5987;SDS011;3021;51.000;6.980;2023-12-07T03:04:45;46.88;;;27.48;;
5987;SDS011;3021;51.000;6.980;2023-12-07T03:07:10;46.72;;;26.98;;
5987;SDS011;3021;51.000;6.980;2023-12-07T03:09:36;49.00;;;28.63;;
5987;SDS011;3021;51.000;6.980;2023-12-07T03:12:01;50.80;;;28.80;;
5987;SDS011;3021;51.000;6.980;2023-12-07T03:14:27;48.28;;;28.38;;
5987;SDS011;3021;51.000;6.980;2023-12-07T03:16:52;45.95;;;26.80;;
5987;SDS011;3021;51.000;6.980;2023-12-07T03:19:17;49.97;;;27.25;;
5987;SDS011;3021;51.000;6.980;2023-12-07T03:21:43;45.50;;;26.75;;
5987;SDS011;3021;51.000;6.980;2023-12-07T03:24:08;54.35;;;29.05;;
5987;SDS011;3021;51.000;6.980;2023-12-07T03:26:35;49.92;;;28.20;;
5987;SDS011;3021;51.000;6.980;2023-12-07T03:29:00;50.15;;;28.92;;
5987;SDS011;3021;51.000;6.980;2023-12-07T03:31:26;49.05;;;28.92;;
5987;SDS011;3021;51.000;6.980;2023-12-07T03:33:52;56.55;;;32.65;;
5987;SDS011;3021;51.000;6.980;2023-12-07T03:36:18;51.72;;;29.25;;
5987;SDS011;3021;51.000;6.980;2023-12-07T03:38:43;61.10;;;31.27;;
5987;SDS011;3021;51.000;6.980;2023-12-07T03:41:08;58.38;;;32.15;;
5987;SDS011;3021;51.000;6.980;2023-12-07T03:43:34;50.10;;;29.90;;
5987;SDS011;3021;51.000;6.980;2023-12-07T03:45:59;53.50;;;29.85;;
5987;SDS011;3021;51.000;6.980;2023-12-07T03:48:24;53.90;;;29.38;;
5987;SDS011;3021;51.000;6.980;2023-12-07T03:50:50;53.03;;;30.08;;
5987;SDS011;3021;51.000;6.980;2023-12-07T03:53:15;52.00;;;29.52;;
5987;SDS011;3021;51.000;6.980;2023-12-07T03:55:41;52.42;;;28.95;;
5987;SDS011;3021;51.000;6.980;2023-12-07T03:58:06;49.10;;;29.20;;
5987;SDS011;3021;51.000;6.980;2023-12-07T04:00:32;49.70;;;28.92;;
5987;SDS011;3021;51.000;6.980;2023-12-07T04:02:57;48.97;;;30.08;;
5987;SDS011;3021;51.000;6.980;2023-12-07T04:05:23;49.45;;;28.17;;
5987;SDS011;3021;51.000;6.980;2023-12-07T04:07:48;49.97;;;27.92;;
5987;SDS011;3021;51.000;6.980;2023-12-07T04:10:14;45.22;;;27.30;;
5987;SDS011;3021;51.000;6.980;2023-12-07T04:12:39;45.65;;;27.33;;
5987;SDS011;3021;51.000;6.980;2023-12-07T04:15:05;46.65;;;28.58;;
5987;SDS011;3021;51.000;6.980;2023-12-07T04:17:31;47.58;;;26.45;;
5987;SDS011;3021;51.000;6.980;2023-12-07T04:19:56;45.13;;;27.60;;
5987;SDS011;3021;51.000;6.980;2023-12-07T04:22:21;42.95;;;27.17;;
5987;SDS011;3021;51.000;6.980;2023-12-07T04:24:48;45.83;;;27.13;;
5987;SDS011;3021;51.000;6.980;2023-12-07T04:27:13;43.83;;;25.55;;
5987;SDS011;3021;51.000;6.980;2023-12-07T04:29:39;40.45;;;25.25;;
5987;SDS011;3021;51.000;6.980;2023-12-07T04:32:06;44.10;;;25.73;;
5987;SDS011;3021;51.000;6.980;2023-12-07T04:34:32;44.85;;;26.20;;
5987;SDS011;3021;51.000;6.980;2023-12-07T04:36:58;44.15;;;26.48;;
5987;SDS011;3021;51.000;6.980;2023-12-07T04:39:23;45.10;;;26.48;;
5987;SDS011;3021;51.000;6.980;2023-12-07T04:41:48;42.40;;;26.35;;
5987;SDS011;3021;51.000;6.980;2023-12-07T04:44:14;42.10;;;24.92;;
5987;SDS011;3021;51.000;6.980;2023-12-07T04:46:40;42.55;;;25.25;;
5987;SDS011;3021;51.000;6.980;2023-12-07T04:49:05;39.38;;;24.75;;
5987;SDS011;3021;51.000;6.980;2023-12-07T04:51:31;42.45;;;25.63;;
5987;SDS011;3021;51.000;6.980;2023-12-07T04:53:56;42.78;;;23.75;;
5987;SDS011;3021;51.000;6.980;2023-12-07T04:56:21;46.20;;;26.05;;
5987;SDS011;3021;51.000;6.980;2023-12-07T04:58:47;42.97;;;25.00;;
5987;SDS011;3021;51.000;6.980;2023-12-07T05:01:12;40.08;;;24.33;;
5987;SDS011;3021;51.000;6.980;2023-12-07T05:03:37;44.95;;;26.50;;
5987;SDS011;3021;51.000;6.980;2023-12-07T05:06:03;48.80;;;26.23;;
5987;SDS011;3021;51.000;6.980;2023-12-07T05:08:28;40.42;;;23.98;;
5987;SDS011;3021;51.000;6.980;2023-12-07T05:10:53;39.40;;;24.30;;
5987;SDS011;3021;51.000;6.980;2023-12-07T05:13:19;44.58;;;24.13;;
5987;SDS011;3021;51.000;6.980;2023-12-07T05:15:44;40.03;;;23.35;;
5987;SDS011;3021;51.000;6.980;2023-12-07T05:18:11;43.88;;;23.73;;
5987;SDS011;3021;51.000;6.980;2023-12-07T05:20:37;38.40;;;23.48;;
5987;SDS011;3021;51.000;6.980;2023-12-07T05:23:04;45.08;;;22.77;;
5987;SDS011;3021;51.000;6.980;2023-12-07T05:25:29;34.80;;;21.73;;
5987;SDS011;3021;51.000;6.980;2023-12-07T05:27:55;33.17;;;21.38;;
5987;SDS011;3021;51.000;6.980;2023-12-07T05:30:20;38.95;;;22.02;;
5987;SDS011;3021;51.000;6.980;2023-12-07T05:32:46;34.75;;;21.40;;
5987;SDS011;3021;51.000;6.980;2023-12-07T05:35:11;34.53;;;20.35;;
5987;SDS011;3021;51.000;6.980;2023-12-07T05:37:36;31.25;;;19.05;;
5987;SDS011;3021;51.000;6.980;2023-12-07T05:40:02;33.38;;;19.98;;
5987;SDS011;3021;51.000;6.980;2023-12-07T05:42:27;34.53;;;19.77;;
5987;SDS011;3021;51.000;6.980;2023-12-07T05:44:53;34.90;;;20.02;;
5987;SDS011;3021;51.000;6.980;2023-12-07T05:47:18;31.60;;;18.95;;
5987;SDS011;3021;51.000;6.980;2023-12-07T05:49:43;33.22;;;19.52;;
5987;SDS011;3021;51.000;6.980;2023-12-07T05:52:09;31.83;;;19.40;;
5987;SDS011;3021;51.000;6.980;2023-12-07T05:54:34;28.58;;;17.58;;
5987;SDS011;3021;51.000;6.980;2023-12-07T05:56:59;28.48;;;17.65;;
5987;SDS011;3021;51.000;6.980;2023-12-07T05:59:25;26.02;;;17.48;;
5987;SDS011;3021;51.000;6.980;2023-12-07T06:01:53;32.80;;;17.38;;
5987;SDS011;3021;51.000;6.980;2023-12-07T06:04:19;29.15;;;17.17;;
5987;SDS011;3021;51.000;6.980;2023-12-07T06:06:44;29.98;;;17.80;;
5987;SDS011;3021;51.000;6.980;2023-12-07T06:09:10;30.25;;;17.02;;
5987;SDS011;3021;51.000;6.980;2023-12-07T06:11:35;31.40;;;17.20;;
5987;SDS011;3021;51.000;6.980;2023-12-07T06:14:01;27.90;;;16.73;;
5987;SDS011;3021;51.000;6.980;2023-12-07T06:16:27;28.13;;;17.63;;
5987;SDS011;3021;51.000;6.980;2023-12-07T06:18:52;27.58;;;16.70;;
5987;SDS011;3021;51.000;6.980;2023-12-07T06:21:18;30.27;;;18.20;;
5987;SDS011;3021;51.000;6.980;2023-12-07T06:23:43;30.42;;;18.15;;
5987;SDS011;3021;51.000;6.980;2023-12-07T06:26:11;27.33;;;17.15;;
5987;SDS011;3021;51.000;6.980;2023-12-07T06:28:36;33.08;;;18.40;;
5987;SDS011;3021;51.000;6.980;2023-12-07T06:31:05;27.88;;;16.52;;
5987;SDS011;3021;51.000;6.980;2023-12-07T06:33:33;32.03;;;18.17;;
5987;SDS011;3021;51.000;6.980;2023-12-07T06:36:00;31.35;;;19.33;;
5987;SDS011;3021;51.000;6.980;2023-12-07T06:38:26;30.17;;;18.33;;
5987;SDS011;3021;51.000;6.980;2023-12-07T06:40:51;35.40;;;19.85;;
5987;SDS011;3021;51.000;6.980;2023-12-07T06:43:17;33.67;;;19.08;;
5987;SDS011;3021;51.000;6.980;2023-12-07T06:45:42;30.95;;;18.08;;
5987;SDS011;3021;51.000;6.980;2023-12-07T06:48:08;29.35;;;17.88;;
5987;SDS011;3021;51.000;6.980;2023-12-07T06:50:33;31.33;;;18.23;;
5987;SDS011;3021;51.000;6.980;2023-12-07T06:52:59;32.10;;;18.42;;
5987;SDS011;3021;51.000;6.980;2023-12-07T06:55:24;29.83;;;19.45;;
5987;SDS011;3021;51.000;6.980;2023-12-07T06:57:50;28.13;;;18.10;;
5987;SDS011;3021;51.000;6.980;2023-12-07T07:00:15;32.13;;;18.45;;
5987;SDS011;3021;51.000;6.980;2023-12-07T07:02:43;32.60;;;19.88;;
5987;SDS011;3021;51.000;6.980;2023-12-07T07:05:08;32.72;;;19.67;;
5987;SDS011;3021;51.000;6.980;2023-12-07T07:07:36;34.60;;;20.40;;
5987;SDS011;3021;51.000;6.980;2023-12-07T07:10:02;36.28;;;20.20;;
5987;SDS011;3021;51.000;6.980;2023-12-07T07:12:27;34.90;;;19.98;;
5987;SDS011;3021;51.000;6.980;2023-12-07T07:14:54;37.20;;;20.70;;
5987;SDS011;3021;51.000;6.980;2023-12-07T07:17:19;39.63;;;22.08;;
5987;SDS011;3021;51.000;6.980;2023-12-07T07:19:45;36.47;;;20.67;;
5987;SDS011;3021;51.000;6.980;2023-12-07T07:22:10;33.10;;;20.52;;
5987;SDS011;3021;51.000;6.980;2023-12-07T07:24:35;32.55;;;19.88;;
5987;SDS011;3021;51.000;6.980;2023-12-07T07:27:01;34.38;;;20.60;;
5987;SDS011;3021;51.000;6.980;2023-12-07T07:29:26;35.42;;;21.15;;
5987;SDS011;3021;51.000;6.980;2023-12-07T07:31:52;37.13;;;20.90;;
5987;SDS011;3021;51.000;6.980;2023-12-07T07:34:18;39.63;;;22.10;;
5987;SDS011;3021;51.000;6.980;2023-12-07T07:36:43;38.47;;;21.73;;
5987;SDS011;3021;51.000;6.980;2023-12-07T07:39:09;42.03;;;23.30;;
5987;SDS011;3021;51.000;6.980;2023-12-07T07:41:35;37.33;;;22.15;;
5987;SDS011;3021;51.000;6.980;2023-12-07T07:44:01;40.65;;;23.05;;
5987;SDS011;3021;51.000;6.980;2023-12-07T07:46:27;39.83;;;22.27;;
5987;SDS011;3021;51.000;6.980;2023-12-07T07:48:52;39.38;;;23.00;;
5987;SDS011;3021;51.000;6.980;2023-12-07T07:51:18;35.65;;;21.80;;
5987;SDS011;3021;51.000;6.980;2023-12-07T07:53:43;41.72;;;22.88;;
5987;SDS011;3021;51.000;6.980;2023-12-07T07:56:08;38.60;;;22.23;;
5987;SDS011;3021;51.000;6.980;2023-12-07T07:58:34;39.33;;;23.10;;
5987;SDS011;3021;51.000;6.980;2023-12-07T08:01:00;40.83;;;24.30;;
5987;SDS011;3021;51.000;6.980;2023-12-07T08:03:25;45.10;;;23.05;;
5987;SDS011;3021;51.000;6.980;2023-12-07T08:05:51;46.55;;;23.33;;
5987;SDS011;3021;51.000;6.980;2023-12-07T08:08:16;39.65;;;21.63;;
5987;SDS011;3021;51.000;6.980;2023-12-07T08:10:41;34.38;;;21.27;;
5987;SDS011;3021;51.000;6.980;2023-12-07T08:13:07;37.95;;;22.75;;
5987;SDS011;3021;51.000;6.980;2023-12-07T08:15:32;37.53;;;22.85;;
5987;SDS011;3021;51.000;6.980;2023-12-07T08:17:58;40.65;;;23.65;;
5987;SDS011;3021;51.000;6.980;2023-12-07T08:20:24;34.30;;;21.63;;
5987;SDS011;3021;51.000;6.980;2023-12-07T08:22:49;38.92;;;23.48;;
5987;SDS011;3021;51.000;6.980;2023-12-07T08:25:15;36.42;;;22.85;;
5987;SDS011;3021;51.000;6.980;2023-12-07T08:27:42;35.55;;;22.13;;
5987;SDS011;3021;51.000;6.980;2023-12-07T08:30:10;36.30;;;22.02;;
5987;SDS011;3021;51.000;6.980;2023-12-07T08:32:35;34.17;;;21.17;;
5987;SDS011;3021;51.000;6.980;2023-12-07T08:35:01;38.45;;;21.60;;
5987;SDS011;3021;51.000;6.980;2023-12-07T08:37:26;36.45;;;23.08;;
5987;SDS011;3021;51.000;6.980;2023-12-07T08:39:52;33.33;;;20.88;;
5987;SDS011;3021;51.000;6.980;2023-12-07T08:42:17;34.40;;;19.92;;
5987;SDS011;3021;51.000;6.980;2023-12-07T08:44:42;33.88;;;20.60;;
5987;SDS011;3021;51.000;6.980;2023-12-07T08:47:08;33.58;;;20.60;;
5987;SDS011;3021;51.000;6.980;2023-12-07T08:49:34;34.92;;;21.17;;
5987;SDS011;3021;51.000;6.980;2023-12-07T08:51:59;33.47;;;21.15;;
5987;SDS011;3021;51.000;6.980;2023-12-07T08:54:24;32.97;;;20.48;;
5987;SDS011;3021;51.000;6.980;2023-12-07T08:56:50;34.67;;;20.67;;
5987;SDS011;3021;51.000;6.980;2023-12-07T08:59:16;34.15;;;21.25;;
5987;SDS011;3021;51.000;6.980;2023-12-07T09:01:41;32.25;;;21.42;;
5987;SDS011;3021;51.000;6.980;2023-12-07T09:04:07;31.60;;;21.08;;
5987;SDS011;3021;51.000;6.980;2023-12-07T09:06:32;31.20;;;19.88;;
5987;SDS011;3021;51.000;6.980;2023-12-07T09:08:57;29.45;;;19.70;;
5987;SDS011;3021;51.000;6.980;2023-12-07T09:11:23;30.15;;;19.85;;
5987;SDS011;3021;51.000;6.980;2023-12-07T09:13:49;29.42;;;19.02;;
5987;SDS011;3021;51.000;6.980;2023-12-07T09:16:14;27.38;;;18.35;;
5987;SDS011;3021;51.000;6.980;2023-12-07T09:18:41;28.70;;;19.05;;
5987;SDS011;3021;51.000;6.980;2023-12-07T09:21:07;27.98;;;18.77;;
5987;SDS011;3021;51.000;6.980;2023-12-07T09:23:32;27.92;;;19.08;;
5987;SDS011;3021;51.000;6.980;2023-12-07T09:25:58;27.88;;;19.25;;
5987;SDS011;3021;51.000;6.980;2023-12-07T09:28:23;28.88;;;19.20;;
5987;SDS011;3021;51.000;6.980;2023-12-07T09:30:48;31.05;;;18.40;;
5987;SDS011;3021;51.000;6.980;2023-12-07T09:33:14;28.73;;;18.63;;
5987;SDS011;3021;51.000;6.980;2023-12-07T09:35:39;25.33;;;17.98;;
5987;SDS011;3021;51.000;6.980;2023-12-07T09:38:05;24.58;;;17.77;;
5987;SDS011;3021;51.000;6.980;2023-12-07T09:40:30;26.48;;;17.52;;
5987;SDS011;3021;51.000;6.980;2023-12-07T09:42:55;26.45;;;17.30;;
5987;SDS011;3021;51.000;6.980;2023-12-07T09:45:21;26.88;;;16.33;;
5987;SDS011;3021;51.000;6.980;2023-12-07T09:47:50;21.92;;;16.73;;
5987;SDS011;3021;51.000;6.980;2023-12-07T09:50:17;30.83;;;17.77;;
5987;SDS011;3021;51.000;6.980;2023-12-07T09:52:47;24.95;;;16.85;;
5987;SDS011;3021;51.000;6.980;2023-12-07T09:55:13;23.48;;;16.63;;
5987;SDS011;3021;51.000;6.980;2023-12-07T09:57:40;24.80;;;17.23;;
5987;SDS011;3021;51.000;6.980;2023-12-07T10:00:06;24.77;;;16.08;;
5987;SDS011;3021;51.000;6.980;2023-12-07T10:02:38;24.85;;;17.13;;
5987;SDS011;3021;51.000;6.980;2023-12-07T10:05:04;24.50;;;16.73;;
5987;SDS011;3021;51.000;6.980;2023-12-07T10:07:35;26.30;;;16.30;;
5987;SDS011;3021;51.000;6.980;2023-12-07T10:10:05;23.48;;;16.73;;
5987;SDS011;3021;51.000;6.980;2023-12-07T10:12:34;26.80;;;17.45;;
5987;SDS011;3021;51.000;6.980;2023-12-07T10:15:00;23.10;;;17.52;;
5987;SDS011;3021;51.000;6.980;2023-12-07T10:17:42;24.40;;;17.17;;
5987;SDS011;3021;51.000;6.980;2023-12-07T10:20:12;23.30;;;16.70;;
5987;SDS011;3021;51.000;6.980;2023-12-07T10:22:38;23.35;;;16.23;;
5987;SDS011;3021;51.000;6.980;2023-12-07T10:25:04;22.05;;;16.40;;
5987;SDS011;3021;51.000;6.980;2023-12-07T10:27:29;26.42;;;16.95;;
5987;SDS011;3021;51.000;6.980;2023-12-07T10:29:55;25.00;;;16.90;;
5987;SDS011;3021;51.000;6.980;2023-12-07T10:32:22;26.67;;;17.10;;
5987;SDS011;3021;51.000;6.980;2023-12-07T10:34:47;24.90;;;17.17;;
5987;SDS011;3021;51.000;6.980;2023-12-07T10:37:12;25.00;;;16.73;;
5987;SDS011;3021;51.000;6.980;2023-12-07T10:39:38;28.10;;;16.70;;
5987;SDS011;3021;51.000;6.980;2023-12-07T10:42:03;23.88;;;16.50;;
5987;SDS011;3021;51.000;6.980;2023-12-07T10:44:36;26.17;;;17.50;;
5987;SDS011;3021;51.000;6.980;2023-12-07T10:47:06;28.17;;;17.10;;
5987;SDS011;3021;51.000;6.980;2023-12-07T10:49:35;21.33;;;15.38;;
5987;SDS011;3021;51.000;6.980;2023-12-07T10:52:06;25.83;;;16.83;;
5987;SDS011;3021;51.000;6.980;2023-12-07T10:54:39;26.27;;;16.25;;
5987;SDS011;3021;51.000;6.980;2023-12-07T10:57:11;24.63;;;16.98;;
5987;SDS011;3021;51.000;6.980;2023-12-07T10:59:39;26.55;;;17.35;;
5987;SDS011;3021;51.000;6.980;2023-12-07T11:02:08;21.42;;;15.05;;
5987;SDS011;3021;51.000;6.980;2023-12-07T11:04:37;24.08;;;15.68;;
5987;SDS011;3021;51.000;6.980;2023-12-07T11:07:07;26.85;;;16.92;;
5987;SDS011;3021;51.000;6.980;2023-12-07T11:09:39;25.13;;;15.80;;
5987;SDS011;3021;51.000;6.980;2023-12-07T11:12:20;21.13;;;14.98;;
5987;SDS011;3021;51.000;6.980;2023-12-07T11:14:55;20.55;;;14.65;;
5987;SDS011;3021;51.000;6.980;2023-12-07T11:17:21;24.83;;;15.63;;
5987;SDS011;3021;51.000;6.980;2023-12-07T11:19:47;23.95;;;15.02;;
5987;SDS011;3021;51.000;6.980;2023-12-07T11:22:12;20.35;;;14.07;;
5987;SDS011;3021;51.000;6.980;2023-12-07T11:24:51;21.98;;;14.93;;
5987;SDS011;3021;51.000;6.980;2023-12-07T11:27:17;22.58;;;14.68;;
5987;SDS011;3021;51.000;6.980;2023-12-07T11:29:43;25.40;;;14.68;;
5987;SDS011;3021;51.000;6.980;2023-12-07T11:32:11;22.13;;;13.93;;
5987;SDS011;3021;51.000;6.980;2023-12-07T11:34:40;20.08;;;13.63;;
5987;SDS011;3021;51.000;6.980;2023-12-07T11:37:08;22.58;;;14.60;;
5987;SDS011;3021;51.000;6.980;2023-12-07T11:39:35;21.27;;;13.68;;
5987;SDS011;3021;51.000;6.980;2023-12-07T11:42:10;21.50;;;14.57;;
5987;SDS011;3021;51.000;6.980;2023-12-07T11:44:37;21.42;;;14.73;;
5987;SDS011;3021;51.000;6.980;2023-12-07T11:47:06;22.25;;;15.75;;
5987;SDS011;3021;51.000;6.980;2023-12-07T11:49:33;25.90;;;15.32;;
5987;SDS011;3021;51.000;6.980;2023-12-07T11:51:59;23.30;;;15.65;;
5987;SDS011;3021;51.000;6.980;2023-12-07T11:54:25;25.13;;;14.85;;
5987;SDS011;3021;51.000;6.980;2023-12-07T11:56:55;22.40;;;15.45;;
5987;SDS011;3021;51.000;6.980;2023-12-07T11:59:21;22.30;;;14.50;;
5987;SDS011;3021;51.000;6.980;2023-12-07T12:01:48;23.10;;;15.27;;
5987;SDS011;3021;51.000;6.980;2023-12-07T12:04:17;21.90;;;15.38;;
5987;SDS011;3021;51.000;6.980;2023-12-07T12:06:45;22.33;;;15.30;;
5987;SDS011;3021;51.000;6.980;2023-12-07T12:09:14;21.35;;;14.23;;
5987;SDS011;3021;51.000;6.980;2023-12-07T12:11:48;23.13;;;15.23;;
5987;SDS011;3021;51.000;6.980;2023-12-07T12:14:14;21.23;;;14.15;;
5987;SDS011;3021;51.000;6.980;2023-12-07T12:16:41;22.98;;;14.73;;
5987;SDS011;3021;51.000;6.980;2023-12-07T12:19:12;26.88;;;15.63;;
5987;SDS011;3021;51.000;6.980;2023-12-07T12:21:40;19.80;;;14.40;;
5987;SDS011;3021;51.000;6.980;2023-12-07T12:24:11;20.08;;;14.70;;
5987;SDS011;3021;51.000;6.980;2023-12-07T12:26:37;18.75;;;12.63;;
5987;SDS011;3021;51.000;6.980;2023-12-07T12:29:08;20.55;;;14.07;;
5987;SDS011;3021;51.000;6.980;2023-12-07T12:31:34;19.05;;;12.95;;
5987;SDS011;3021;51.000;6.980;2023-12-07T12:34:00;19.10;;;12.73;;
5987;SDS011;3021;51.000;6.980;2023-12-07T12:36:26;20.05;;;13.60;;
5987;SDS011;3021;51.000;6.980;2023-12-07T12:38:53;18.00;;;13.15;;
5987;SDS011;3021;51.000;6.980;2023-12-07T12:41:19;21.13;;;13.25;;
5987;SDS011;3021;51.000;6.980;2023-12-07T12:43:45;23.20;;;13.05;;
5987;SDS011;3021;51.000;6.980;2023-12-07T12:46:10;20.80;;;13.48;;
5987;SDS011;3021;51.000;6.980;2023-12-07T12:48:36;21.70;;;13.13;;
5987;SDS011;3021;51.000;6.980;2023-12-07T12:51:08;18.73;;;12.82;;
5987;SDS011;3021;51.000;6.980;2023-12-07T12:53:41;25.92;;;12.85;;
5987;SDS011;3021;51.000;6.980;2023-12-07T12:56:10;21.27;;;13.48;;
5987;SDS011;3021;51.000;6.980;2023-12-07T12:58:36;20.40;;;12.75;;
5987;SDS011;3021;51.000;6.980;2023-12-07T13:01:01;19.48;;;12.88;;
5987;SDS011;3021;51.000;6.980;2023-12-07T13:03:28;17.15;;;11.73;;
5987;SDS011;3021;51.000;6.980;2023-12-07T13:05:54;19.63;;;11.90;;
5987;SDS011;3021;51.000;6.980;2023-12-07T13:08:19;20.55;;;11.88;;
5987;SDS011;3021;51.000;6.980;2023-12-07T13:10:44;16.70;;;11.30;;
5987;SDS011;3021;51.000;6.980;2023-12-07T13:13:10;17.08;;;11.32;;
5987;SDS011;3021;51.000;6.980;2023-12-07T13:15:35;18.75;;;11.73;;
5987;SDS011;3021;51.000;6.980;2023-12-07T13:18:00;17.33;;;12.00;;
5987;SDS011;3021;51.000;6.980;2023-12-07T13:20:26;20.00;;;11.63;;
5987;SDS011;3021;51.000;6.980;2023-12-07T13:22:51;24.38;;;11.57;;
5987;SDS011;3021;51.000;6.980;2023-12-07T13:25:16;13.90;;;10.48;;
5987;SDS011;3021;51.000;6.980;2023-12-07T13:27:42;17.63;;;10.05;;
5987;SDS011;3021;51.000;6.980;2023-12-07T13:30:10;17.65;;;10.25;;
5987;SDS011;3021;51.000;6.980;2023-12-07T13:32:36;14.75;;;9.80;;
5987;SDS011;3021;51.000;6.980;2023-12-07T13:35:05;16.30;;;10.32;;
5987;SDS011;3021;51.000;6.980;2023-12-07T13:37:31;14.52;;;10.25;;
5987;SDS011;3021;51.000;6.980;2023-12-07T13:39:57;19.23;;;10.60;;
5987;SDS011;3021;51.000;6.980;2023-12-07T13:42:25;18.25;;;9.85;;
5987;SDS011;3021;51.000;6.980;2023-12-07T13:44:54;14.05;;;9.25;;
5987;SDS011;3021;51.000;6.980;2023-12-07T13:47:22;16.67;;;9.77;;
5987;SDS011;3021;51.000;6.980;2023-12-07T13:49:56;14.93;;;9.03;;
5987;SDS011;3021;51.000;6.980;2023-12-07T13:52:22;13.82;;;9.48;;
5987;SDS011;3021;51.000;6.980;2023-12-07T13:54:48;14.07;;;9.82;;
5987;SDS011;3021;51.000;6.980;2023-12-07T13:57:13;14.07;;;9.57;;
5987;SDS011;3021;51.000;6.980;2023-12-07T13:59:39;16.60;;;10.07;;
5987;SDS011;3021;51.000;6.980;2023-12-07T14:02:05;16.60;;;9.55;;
5987;SDS011;3021;51.000;6.980;2023-12-07T14:04:30;14.30;;;9.27;;
5987;SDS011;3021;51.000;6.980;2023-12-07T14:07:06;15.75;;;9.38;;
5987;SDS011;3021;51.000;6.980;2023-12-07T14:09:35;17.55;;;9.93;;
5987;SDS011;3021;51.000;6.980;2023-12-07T14:12:02;21.17;;;12.88;;
5987;SDS011;3021;51.000;6.980;2023-12-07T14:14:28;13.85;;;10.18;;
5987;SDS011;3021;51.000;6.980;2023-12-07T14:16:53;16.08;;;9.73;;
5987;SDS011;3021;51.000;6.980;2023-12-07T14:19:19;16.80;;;10.60;;
5987;SDS011;3021;51.000;6.980;2023-12-07T14:21:45;16.02;;;9.80;;
5987;SDS011;3021;51.000;6.980;2023-12-07T14:24:10;16.52;;;10.13;;
5987;SDS011;3021;51.000;6.980;2023-12-07T14:26:35;18.15;;;10.90;;
5987;SDS011;3021;51.000;6.980;2023-12-07T14:29:02;17.25;;;11.30;;
5987;SDS011;3021;51.000;6.980;2023-12-07T14:31:27;17.65;;;11.00;;
5987;SDS011;3021;51.000;6.980;2023-12-07T14:33:52;17.23;;;11.10;;
5987;SDS011;3021;51.000;6.980;2023-12-07T14:36:18;17.77;;;12.07;;
5987;SDS011;3021;51.000;6.980;2023-12-07T14:38:44;19.20;;;10.90;;
5987;SDS011;3021;51.000;6.980;2023-12-07T14:41:10;18.00;;;11.20;;
5987;SDS011;3021;51.000;6.980;2023-12-07T14:43:37;17.10;;;11.63;;
5987;SDS011;3021;51.000;6.980;2023-12-07T14:46:05;19.60;;;11.85;;